King Salmon Airport
PAKN : now visible

Airfield :











YOU CAN JOIN US ON...

 
LOGIN :

Register | Disclaimer

   EN    FR    IT 

 









Legend :    VFR   Marginal VFR   IFR   Intensive IFR   Very Intensive IFR
Visi :
Ceiling :
>= 8 km
>= 3000ft
5 to 8 km
1000 to 3000 ft
1500m to 5 km
500 to 1000 ft
800 to 1500m
200 to 500 ft
< 800m
< 200 ft
Symbols :   Thunderstorms  Fog  Heavy snow  Heavy precipitations  Wind > 20 kt






- Airport Elevation : 73 ft
- IATA code : AKN


PAKN - King Salmon

CURRENT METAR :
  • 010754Z 17009KT 10SM SCT049 BKN075 16/13 A3000 RMK AO2 SLP160 T01610128 $

EXPIRED METARs :
  • 010654Z 17008KT 10SM SCT043 BKN090 17/13 A3000 RMK AO2 SLP158 T01670128 $
  • 010554Z 18010G17KT 10SM BKN070 OVC090 17/13 A2999 RMK AO2 SLP155 T01670128 10211 20167 51008 $

TAF PAKN
Valid from the 01 at 06:00 until the 02 at 06:00 UTC


010534Z 0106/0206 16010KT P6SM SCT030 OVC050
TEMPO 0106/0108 18012G18KT
FM011800 17016G23KT P6SM BKN070
PAZA FIR / North America



MET'MAP, your aeronautical weather chart ! - Copyright ORBIFLY December 2007 - Disclaimer

ORBIFLY MET'MAP TEAM :

Programming & Development : Alexandra Zaïnal
Concept & original design : Baudouin d'Aumeries
Assistance for programming : Marc-Olivier Méhu
Technical & hardware support : Manuel Goepfert

Contact : metmap@orbifly.com




SOURCES & CREDITS :

   NOAA       Earth
Advisory